Brookwood, Louisiana
Current Conditions -  °F | °C
As of 3:53 AM on Saturday 20 Dec 2014 (Local Time) from KAEX Reporting Station
Overcast Overcast  
Wind Chill: 43°   Ceiling: 800
Heat Index: 47°   Visibility: 10mi
Dew Point: 45°   Wind: 8mph
Humidity: 93%   Direction: 50°NE
Pressure: 30.14"   Gusts: NA
Location:  31.1516°N, 92.535°W
Report Text: KAEX 200953Z 05007KT 10SM OVC008 08/07 A3014 RMK AO2 RAB28E50 SLP211 P0000 T00830072
Loading
Personal Weather Stations






























Interactive Weather Map New forecast layout! Learn more

10-Day Weather Forecast

Advertisements
Track Severe Weather on mobile